sensor_id;sensor_type;location;lat;lon;timestamp;temperature;humidity
21167;DHT22;10741;52.272;9.580;2024-01-16T00:00:12;1.50;99.90
21167;DHT22;10741;52.272;9.580;2024-01-16T00:02:37;1.60;99.90
21167;DHT22;10741;52.272;9.580;2024-01-16T00:05:03;1.60;99.90
21167;DHT22;10741;52.272;9.580;2024-01-16T00:07:29;1.60;99.90
21167;DHT22;10741;52.272;9.580;2024-01-16T00:09:55;1.50;99.90
21167;DHT22;10741;52.272;9.580;2024-01-16T00:12:21;1.50;99.90
21167;DHT22;10741;52.272;9.580;2024-01-16T00:14:46;1.50;99.90
21167;DHT22;10741;52.272;9.580;2024-01-16T00:17:12;1.60;99.90
21167;DHT22;10741;52.272;9.580;2024-01-16T00:19:37;1.60;99.90
21167;DHT22;10741;52.272;9.580;2024-01-16T00:22:03;1.60;99.90
21167;DHT22;10741;52.272;9.580;2024-01-16T00:24:30;1.50;99.90
21167;DHT22;10741;52.272;9.580;2024-01-16T00:26:56;1.50;99.90
21167;DHT22;10741;52.272;9.580;2024-01-16T00:29:22;1.60;99.90
21167;DHT22;10741;52.272;9.580;2024-01-16T00:31:47;1.50;99.90
21167;DHT22;10741;52.272;9.580;2024-01-16T00:34:14;1.50;99.90
21167;DHT22;10741;52.272;9.580;2024-01-16T00:36:39;1.50;99.90
21167;DHT22;10741;52.272;9.580;2024-01-16T00:39:05;1.50;99.90
21167;DHT22;10741;52.272;9.580;2024-01-16T00:41:31;1.50;99.90
21167;DHT22;10741;52.272;9.580;2024-01-16T00:43:56;1.50;99.90
21167;DHT22;10741;52.272;9.580;2024-01-16T00:46:22;1.50;99.90
21167;DHT22;10741;52.272;9.580;2024-01-16T00:48:47;1.50;99.90
21167;DHT22;10741;52.272;9.580;2024-01-16T00:51:13;1.50;99.90
21167;DHT22;10741;52.272;9.580;2024-01-16T00:53:42;1.40;99.90
21167;DHT22;10741;52.272;9.580;2024-01-16T00:56:08;1.40;99.90
21167;DHT22;10741;52.272;9.580;2024-01-16T00:58:34;1.50;99.90
21167;DHT22;10741;52.272;9.580;2024-01-16T01:01:00;1.50;99.90
21167;DHT22;10741;52.272;9.580;2024-01-16T01:03:25;1.40;99.90
21167;DHT22;10741;52.272;9.580;2024-01-16T01:05:51;1.50;99.90
21167;DHT22;10741;52.272;9.580;2024-01-16T01:08:17;1.50;99.90
21167;DHT22;10741;52.272;9.580;2024-01-16T01:10:43;1.50;99.90
21167;DHT22;10741;52.272;9.580;2024-01-16T01:13:08;1.50;99.90
21167;DHT22;10741;52.272;9.580;2024-01-16T01:15:34;1.50;99.90
21167;DHT22;10741;52.272;9.580;2024-01-16T01:17:59;1.50;99.90
21167;DHT22;10741;52.272;9.580;2024-01-16T01:20:25;1.50;99.90
21167;DHT22;10741;52.272;9.580;2024-01-16T01:22:51;1.50;99.90
21167;DHT22;10741;52.272;9.580;2024-01-16T01:25:16;1.50;99.90
21167;DHT22;10741;52.272;9.580;2024-01-16T01:27:42;1.50;99.90
21167;DHT22;10741;52.272;9.580;2024-01-16T01:30:08;1.50;99.90
21167;DHT22;10741;52.272;9.580;2024-01-16T01:32:37;1.40;99.90
21167;DHT22;10741;52.272;9.580;2024-01-16T01:35:04;1.50;99.90
21167;DHT22;10741;52.272;9.580;2024-01-16T01:37:30;1.40;99.90
21167;DHT22;10741;52.272;9.580;2024-01-16T01:39:56;1.40;99.90
21167;DHT22;10741;52.272;9.580;2024-01-16T01:42:21;1.40;99.90
21167;DHT22;10741;52.272;9.580;2024-01-16T01:44:47;1.40;99.90
21167;DHT22;10741;52.272;9.580;2024-01-16T01:47:13;1.40;99.90
21167;DHT22;10741;52.272;9.580;2024-01-16T01:49:39;1.40;99.90
21167;DHT22;10741;52.272;9.580;2024-01-16T01:52:05;1.50;99.90
21167;DHT22;10741;52.272;9.580;2024-01-16T01:54:32;1.40;99.90
21167;DHT22;10741;52.272;9.580;2024-01-16T01:56:59;1.50;99.90
21167;DHT22;10741;52.272;9.580;2024-01-16T01:59:25;1.40;99.90
21167;DHT22;10741;52.272;9.580;2024-01-16T02:01:52;1.40;99.90
21167;DHT22;10741;52.272;9.580;2024-01-16T02:04:19;1.30;99.90
21167;DHT22;10741;52.272;9.580;2024-01-16T02:06:45;1.20;99.90
21167;DHT22;10741;52.272;9.580;2024-01-16T02:09:11;1.20;99.90
21167;DHT22;10741;52.272;9.580;2024-01-16T02:11:39;1.20;99.90
21167;DHT22;10741;52.272;9.580;2024-01-16T02:14:04;1.20;99.90
21167;DHT22;10741;52.272;9.580;2024-01-16T02:16:36;1.20;99.90
21167;DHT22;10741;52.272;9.580;2024-01-16T02:19:03;1.20;99.90
21167;DHT22;10741;52.272;9.580;2024-01-16T02:21:37;1.20;99.90
21167;DHT22;10741;52.272;9.580;2024-01-16T02:24:05;1.20;99.90
21167;DHT22;10741;52.272;9.580;2024-01-16T02:26:31;1.20;99.90
21167;DHT22;10741;52.272;9.580;2024-01-16T02:28:57;1.20;99.90
21167;DHT22;10741;52.272;9.580;2024-01-16T02:31:22;1.20;99.90
21167;DHT22;10741;52.272;9.580;2024-01-16T02:33:48;1.20;99.90
21167;DHT22;10741;52.272;9.580;2024-01-16T02:36:14;1.20;99.90
21167;DHT22;10741;52.272;9.580;2024-01-16T02:38:39;1.20;99.90
21167;DHT22;10741;52.272;9.580;2024-01-16T02:41:07;1.10;99.90
21167;DHT22;10741;52.272;9.580;2024-01-16T02:43:33;1.10;99.90
21167;DHT22;10741;52.272;9.580;2024-01-16T02:45:58;1.10;99.90
21167;DHT22;10741;52.272;9.580;2024-01-16T02:48:24;1.10;99.90
21167;DHT22;10741;52.272;9.580;2024-01-16T02:50:50;1.10;99.90
21167;DHT22;10741;52.272;9.580;2024-01-16T02:53:15;1.10;99.90
21167;DHT22;10741;52.272;9.580;2024-01-16T02:55:41;1.10;99.90
21167;DHT22;10741;52.272;9.580;2024-01-16T02:58:06;1.00;99.90
21167;DHT22;10741;52.272;9.580;2024-01-16T03:00:32;1.00;99.90
21167;DHT22;10741;52.272;9.580;2024-01-16T03:02:58;1.00;99.90
21167;DHT22;10741;52.272;9.580;2024-01-16T03:05:24;1.10;99.90
21167;DHT22;10741;52.272;9.580;2024-01-16T03:07:49;1.10;99.90
21167;DHT22;10741;52.272;9.580;2024-01-16T03:10:15;1.20;99.90
21167;DHT22;10741;52.272;9.580;2024-01-16T03:12:41;1.00;99.90
21167;DHT22;10741;52.272;9.580;2024-01-16T03:15:06;1.00;99.90
21167;DHT22;10741;52.272;9.580;2024-01-16T03:17:32;1.00;99.90
21167;DHT22;10741;52.272;9.580;2024-01-16T03:19:58;1.00;99.90
21167;DHT22;10741;52.272;9.580;2024-01-16T03:22:23;1.00;99.90
21167;DHT22;10741;52.272;9.580;2024-01-16T03:24:49;0.90;99.90
21167;DHT22;10741;52.272;9.580;2024-01-16T03:27:16;0.80;99.90
21167;DHT22;10741;52.272;9.580;2024-01-16T03:29:41;0.80;99.90
21167;DHT22;10741;52.272;9.580;2024-01-16T03:32:07;0.70;99.90
21167;DHT22;10741;52.272;9.580;2024-01-16T03:34:33;0.70;99.90
21167;DHT22;10741;52.272;9.580;2024-01-16T03:36:59;0.60;99.90
21167;DHT22;10741;52.272;9.580;2024-01-16T03:39:24;0.60;99.90
21167;DHT22;10741;52.272;9.580;2024-01-16T03:41:50;0.60;99.90
21167;DHT22;10741;52.272;9.580;2024-01-16T03:44:15;0.60;99.90
21167;DHT22;10741;52.272;9.580;2024-01-16T03:46:41;0.60;99.90
21167;DHT22;10741;52.272;9.580;2024-01-16T03:49:06;0.60;99.90
21167;DHT22;10741;52.272;9.580;2024-01-16T03:51:32;0.60;99.90
21167;DHT22;10741;52.272;9.580;2024-01-16T03:53:58;0.60;99.90
21167;DHT22;10741;52.272;9.580;2024-01-16T03:56:24;0.60;99.90
21167;DHT22;10741;52.272;9.580;2024-01-16T03:58:49;0.60;99.90
21167;DHT22;10741;52.272;9.580;2024-01-16T04:01:15;0.60;99.90
21167;DHT22;10741;52.272;9.580;2024-01-16T04:03:40;0.60;99.90
21167;DHT22;10741;52.272;9.580;2024-01-16T04:06:16;0.50;99.90
21167;DHT22;10741;52.272;9.580;2024-01-16T04:08:42;0.60;99.90
21167;DHT22;10741;52.272;9.580;2024-01-16T04:11:14;0.60;99.90
21167;DHT22;10741;52.272;9.580;2024-01-16T04:13:40;0.50;99.90
21167;DHT22;10741;52.272;9.580;2024-01-16T04:16:06;0.60;99.90
21167;DHT22;10741;52.272;9.580;2024-01-16T04:18:36;0.60;99.90
21167;DHT22;10741;52.272;9.580;2024-01-16T04:21:03;0.60;99.90
21167;DHT22;10741;52.272;9.580;2024-01-16T04:23:29;0.60;99.90
21167;DHT22;10741;52.272;9.580;2024-01-16T04:25:54;0.60;99.90
21167;DHT22;10741;52.272;9.580;2024-01-16T04:28:20;0.60;99.90
21167;DHT22;10741;52.272;9.580;2024-01-16T04:30:45;0.70;99.90
21167;DHT22;10741;52.272;9.580;2024-01-16T04:33:11;0.60;99.90
21167;DHT22;10741;52.272;9.580;2024-01-16T04:35:37;0.70;99.90
21167;DHT22;10741;52.272;9.580;2024-01-16T04:38:02;0.70;99.90
21167;DHT22;10741;52.272;9.580;2024-01-16T04:40:28;0.70;99.90
21167;DHT22;10741;52.272;9.580;2024-01-16T04:42:54;0.80;99.90
21167;DHT22;10741;52.272;9.580;2024-01-16T04:45:19;0.80;99.90
21167;DHT22;10741;52.272;9.580;2024-01-16T04:47:45;0.70;99.90
21167;DHT22;10741;52.272;9.580;2024-01-16T04:50:10;0.80;99.90
21167;DHT22;10741;52.272;9.580;2024-01-16T04:52:36;0.80;99.90
21167;DHT22;10741;52.272;9.580;2024-01-16T04:55:01;0.80;99.90
21167;DHT22;10741;52.272;9.580;2024-01-16T04:57:27;0.80;99.90
21167;DHT22;10741;52.272;9.580;2024-01-16T04:59:53;0.70;99.90
21167;DHT22;10741;52.272;9.580;2024-01-16T05:02:18;0.70;99.90
21167;DHT22;10741;52.272;9.580;2024-01-16T05:04:44;0.60;99.90
21167;DHT22;10741;52.272;9.580;2024-01-16T05:07:10;0.60;99.90
21167;DHT22;10741;52.272;9.580;2024-01-16T05:09:36;0.60;99.90
21167;DHT22;10741;52.272;9.580;2024-01-16T05:12:02;0.60;99.90
21167;DHT22;10741;52.272;9.580;2024-01-16T05:14:27;0.60;99.90
21167;DHT22;10741;52.272;9.580;2024-01-16T05:16:53;0.70;99.90
21167;DHT22;10741;52.272;9.580;2024-01-16T05:19:19;0.70;99.90
21167;DHT22;10741;52.272;9.580;2024-01-16T05:21:44;0.70;99.90
21167;DHT22;10741;52.272;9.580;2024-01-16T05:24:11;0.80;99.90
21167;DHT22;10741;52.272;9.580;2024-01-16T05:26:36;0.60;99.90
21167;DHT22;10741;52.272;9.580;2024-01-16T05:29:02;0.60;99.90
21167;DHT22;10741;52.272;9.580;2024-01-16T05:31:27;0.60;99.90
21167;DHT22;10741;52.272;9.580;2024-01-16T05:33:53;0.60;99.90
21167;DHT22;10741;52.272;9.580;2024-01-16T05:36:18;0.50;99.90
21167;DHT22;10741;52.272;9.580;2024-01-16T05:38:44;0.60;99.90
21167;DHT22;10741;52.272;9.580;2024-01-16T05:41:09;0.60;99.90
21167;DHT22;10741;52.272;9.580;2024-01-16T05:43:35;0.50;99.90
21167;DHT22;10741;52.272;9.580;2024-01-16T05:46:01;0.40;99.90
21167;DHT22;10741;52.272;9.580;2024-01-16T05:48:26;0.40;99.90
21167;DHT22;10741;52.272;9.580;2024-01-16T05:50:52;0.40;99.90
21167;DHT22;10741;52.272;9.580;2024-01-16T05:53:17;0.40;99.90
21167;DHT22;10741;52.272;9.580;2024-01-16T05:55:43;0.40;99.90
21167;DHT22;10741;52.272;9.580;2024-01-16T05:58:08;0.50;99.90
21167;DHT22;10741;52.272;9.580;2024-01-16T06:00:34;0.50;99.90
21167;DHT22;10741;52.272;9.580;2024-01-16T06:03:00;0.50;99.90
21167;DHT22;10741;52.272;9.580;2024-01-16T06:05:25;0.40;99.90
21167;DHT22;10741;52.272;9.580;2024-01-16T06:07:51;0.40;99.90
21167;DHT22;10741;52.272;9.580;2024-01-16T06:10:17;0.40;99.90
21167;DHT22;10741;52.272;9.580;2024-01-16T06:12:42;0.40;99.90
21167;DHT22;10741;52.272;9.580;2024-01-16T06:15:08;0.40;99.90
21167;DHT22;10741;52.272;9.580;2024-01-16T06:17:36;0.50;99.90
21167;DHT22;10741;52.272;9.580;2024-01-16T06:20:02;0.50;99.90
21167;DHT22;10741;52.272;9.580;2024-01-16T06:22:28;0.60;99.90
21167;DHT22;10741;52.272;9.580;2024-01-16T06:24:53;0.60;99.90
21167;DHT22;10741;52.272;9.580;2024-01-16T06:27:19;0.70;99.90
21167;DHT22;10741;52.272;9.580;2024-01-16T06:29:45;0.70;99.90
21167;DHT22;10741;52.272;9.580;2024-01-16T06:32:11;0.70;99.90
21167;DHT22;10741;52.272;9.580;2024-01-16T06:34:37;0.80;99.90
21167;DHT22;10741;52.272;9.580;2024-01-16T06:37:03;0.80;99.90
21167;DHT22;10741;52.272;9.580;2024-01-16T06:39:29;0.80;99.90
21167;DHT22;10741;52.272;9.580;2024-01-16T06:41:54;0.80;99.90
21167;DHT22;10741;52.272;9.580;2024-01-16T06:44:20;0.80;99.90
21167;DHT22;10741;52.272;9.580;2024-01-16T06:46:45;0.80;99.90
21167;DHT22;10741;52.272;9.580;2024-01-16T06:49:11;0.80;99.90
21167;DHT22;10741;52.272;9.580;2024-01-16T06:51:37;0.70;99.90
21167;DHT22;10741;52.272;9.580;2024-01-16T06:54:02;0.70;99.90
21167;DHT22;10741;52.272;9.580;2024-01-16T06:56:29;0.70;99.90
21167;DHT22;10741;52.272;9.580;2024-01-16T06:58:54;0.70;99.90
21167;DHT22;10741;52.272;9.580;2024-01-16T07:01:20;0.60;99.90
21167;DHT22;10741;52.272;9.580;2024-01-16T07:03:46;0.60;99.90
21167;DHT22;10741;52.272;9.580;2024-01-16T07:06:11;0.60;99.90
21167;DHT22;10741;52.272;9.580;2024-01-16T07:08:37;0.60;99.90
21167;DHT22;10741;52.272;9.580;2024-01-16T07:11:03;0.60;99.90
21167;DHT22;10741;52.272;9.580;2024-01-16T07:13:33;0.60;99.90
21167;DHT22;10741;52.272;9.580;2024-01-16T07:15:59;0.70;99.90
21167;DHT22;10741;52.272;9.580;2024-01-16T07:18:26;0.80;99.90
21167;DHT22;10741;52.272;9.580;2024-01-16T07:20:52;0.80;99.90
21167;DHT22;10741;52.272;9.580;2024-01-16T07:23:18;0.80;99.90
21167;DHT22;10741;52.272;9.580;2024-01-16T07:25:43;0.80;99.90
21167;DHT22;10741;52.272;9.580;2024-01-16T07:28:09;0.80;99.90
21167;DHT22;10741;52.272;9.580;2024-01-16T07:30:34;0.70;99.90
21167;DHT22;10741;52.272;9.580;2024-01-16T07:33:00;0.70;99.90
21167;DHT22;10741;52.272;9.580;2024-01-16T07:35:25;0.70;99.90
21167;DHT22;10741;52.272;9.580;2024-01-16T07:37:51;0.70;99.90
21167;DHT22;10741;52.272;9.580;2024-01-16T07:40:17;0.70;99.90
21167;DHT22;10741;52.272;9.580;2024-01-16T07:42:42;0.70;99.90
21167;DHT22;10741;52.272;9.580;2024-01-16T07:45:08;0.60;99.90
21167;DHT22;10741;52.272;9.580;2024-01-16T07:47:34;0.70;99.90
21167;DHT22;10741;52.272;9.580;2024-01-16T07:50:00;0.80;99.90
21167;DHT22;10741;52.272;9.580;2024-01-16T07:52:27;0.70;99.90
21167;DHT22;10741;52.272;9.580;2024-01-16T07:54:53;0.80;99.90
21167;DHT22;10741;52.272;9.580;2024-01-16T07:57:19;0.80;99.90
21167;DHT22;10741;52.272;9.580;2024-01-16T07:59:44;0.90;99.90
21167;DHT22;10741;52.272;9.580;2024-01-16T08:02:10;0.80;99.90
21167;DHT22;10741;52.272;9.580;2024-01-16T08:04:36;0.90;99.90
21167;DHT22;10741;52.272;9.580;2024-01-16T08:07:02;0.90;99.90
21167;DHT22;10741;52.272;9.580;2024-01-16T08:09:27;0.90;99.90
21167;DHT22;10741;52.272;9.580;2024-01-16T08:11:53;0.90;99.90
21167;DHT22;10741;52.272;9.580;2024-01-16T08:14:18;0.90;99.90
21167;DHT22;10741;52.272;9.580;2024-01-16T08:16:44;0.90;99.90
21167;DHT22;10741;52.272;9.580;2024-01-16T08:19:09;0.90;99.90
21167;DHT22;10741;52.272;9.580;2024-01-16T08:21:35;1.00;99.90
21167;DHT22;10741;52.272;9.580;2024-01-16T08:24:01;0.90;99.90
21167;DHT22;10741;52.272;9.580;2024-01-16T08:26:27;0.90;99.90
21167;DHT22;10741;52.272;9.580;2024-01-16T08:28:53;1.00;99.90
21167;DHT22;10741;52.272;9.580;2024-01-16T08:31:19;1.00;99.90
21167;DHT22;10741;52.272;9.580;2024-01-16T08:33:45;1.00;99.90
21167;DHT22;10741;52.272;9.580;2024-01-16T08:36:11;1.00;99.90
21167;DHT22;10741;52.272;9.580;2024-01-16T08:38:37;1.20;99.90
21167;DHT22;10741;52.272;9.580;2024-01-16T08:41:02;1.30;99.90
21167;DHT22;10741;52.272;9.580;2024-01-16T08:43:34;1.30;99.90
21167;DHT22;10741;52.272;9.580;2024-01-16T08:46:00;1.40;99.90
21167;DHT22;10741;52.272;9.580;2024-01-16T08:48:25;1.40;99.90
21167;DHT22;10741;52.272;9.580;2024-01-16T08:50:52;1.40;99.90
21167;DHT22;10741;52.272;9.580;2024-01-16T08:53:19;1.40;99.90
21167;DHT22;10741;52.272;9.580;2024-01-16T08:55:45;1.40;99.90
21167;DHT22;10741;52.272;9.580;2024-01-16T08:58:10;1.30;99.90
21167;DHT22;10741;52.272;9.580;2024-01-16T09:00:36;1.30;99.90
21167;DHT22;10741;52.272;9.580;2024-01-16T09:03:03;1.30;99.90
21167;DHT22;10741;52.272;9.580;2024-01-16T09:05:29;1.30;99.90
21167;DHT22;10741;52.272;9.580;2024-01-16T09:07:55;1.30;99.90
21167;DHT22;10741;52.272;9.580;2024-01-16T09:10:20;1.30;99.90
21167;DHT22;10741;52.272;9.580;2024-01-16T09:12:46;1.40;99.90
21167;DHT22;10741;52.272;9.580;2024-01-16T09:15:11;1.40;99.90
21167;DHT22;10741;52.272;9.580;2024-01-16T09:17:37;1.40;99.90
21167;DHT22;10741;52.272;9.580;2024-01-16T09:20:05;1.50;99.90
21167;DHT22;10741;52.272;9.580;2024-01-16T09:22:32;1.50;99.90
21167;DHT22;10741;52.272;9.580;2024-01-16T09:24:57;1.50;99.90
21167;DHT22;10741;52.272;9.580;2024-01-16T09:27:23;1.50;99.90
21167;DHT22;10741;52.272;9.580;2024-01-16T09:29:49;1.60;99.90
21167;DHT22;10741;52.272;9.580;2024-01-16T09:32:14;1.60;99.90
21167;DHT22;10741;52.272;9.580;2024-01-16T09:34:40;1.70;99.90
21167;DHT22;10741;52.272;9.580;2024-01-16T09:37:06;1.70;99.90
21167;DHT22;10741;52.272;9.580;2024-01-16T09:39:32;1.80;99.90
21167;DHT22;10741;52.272;9.580;2024-01-16T09:42:00;1.80;99.90
21167;DHT22;10741;52.272;9.580;2024-01-16T09:44:29;2.00;99.90
21167;DHT22;10741;52.272;9.580;2024-01-16T09:46:55;2.00;99.90
21167;DHT22;10741;52.272;9.580;2024-01-16T09:49:24;2.10;99.90
21167;DHT22;10741;52.272;9.580;2024-01-16T09:51:49;2.30;99.90
21167;DHT22;10741;52.272;9.580;2024-01-16T09:54:15;2.30;99.90
21167;DHT22;10741;52.272;9.580;2024-01-16T09:56:44;2.30;99.90
21167;DHT22;10741;52.272;9.580;2024-01-16T09:59:14;2.30;99.90
21167;DHT22;10741;52.272;9.580;2024-01-16T10:01:40;2.40;99.90
21167;DHT22;10741;52.272;9.580;2024-01-16T10:04:06;2.40;99.90
21167;DHT22;10741;52.272;9.580;2024-01-16T10:06:33;2.50;99.90
21167;DHT22;10741;52.272;9.580;2024-01-16T10:08:59;2.50;99.90
21167;DHT22;10741;52.272;9.580;2024-01-16T10:11:25;2.50;99.90
21167;DHT22;10741;52.272;9.580;2024-01-16T10:13:51;2.60;99.90
21167;DHT22;10741;52.272;9.580;2024-01-16T10:16:17;2.60;99.90
21167;DHT22;10741;52.272;9.580;2024-01-16T10:18:42;2.70;99.90
21167;DHT22;10741;52.272;9.580;2024-01-16T10:21:22;2.80;99.90
21167;DHT22;10741;52.272;9.580;2024-01-16T10:23:48;2.80;99.90
21167;DHT22;10741;52.272;9.580;2024-01-16T10:26:14;2.80;99.90
21167;DHT22;10741;52.272;9.580;2024-01-16T10:28:41;2.80;99.90
21167;DHT22;10741;52.272;9.580;2024-01-16T10:31:08;2.80;99.90
21167;DHT22;10741;52.272;9.580;2024-01-16T10:33:34;2.80;99.90
21167;DHT22;10741;52.272;9.580;2024-01-16T10:36:14;2.90;99.90
21167;DHT22;10741;52.272;9.580;2024-01-16T10:38:43;3.00;99.90
21167;DHT22;10741;52.272;9.580;2024-01-16T10:41:12;3.10;99.90
21167;DHT22;10741;52.272;9.580;2024-01-16T10:43:38;3.10;99.90
21167;DHT22;10741;52.272;9.580;2024-01-16T10:46:14;3.10;99.90
21167;DHT22;10741;52.272;9.580;2024-01-16T10:48:44;3.00;99.90
21167;DHT22;10741;52.272;9.580;2024-01-16T10:51:14;3.00;99.90
21167;DHT22;10741;52.272;9.580;2024-01-16T10:53:44;2.90;99.90
21167;DHT22;10741;52.272;9.580;2024-01-16T10:56:13;2.90;99.90
21167;DHT22;10741;52.272;9.580;2024-01-16T10:58:42;2.80;99.90
21167;DHT22;10741;52.272;9.580;2024-01-16T11:01:11;2.80;99.90
21167;DHT22;10741;52.272;9.580;2024-01-16T11:03:49;2.80;99.90
21167;DHT22;10741;52.272;9.580;2024-01-16T11:06:16;2.90;99.90
21167;DHT22;10741;52.272;9.580;2024-01-16T11:08:42;2.90;99.90
21167;DHT22;10741;52.272;9.580;2024-01-16T11:11:08;2.80;99.90
21167;DHT22;10741;52.272;9.580;2024-01-16T11:13:36;2.80;99.90
21167;DHT22;10741;52.272;9.580;2024-01-16T11:16:03;2.80;99.90
21167;DHT22;10741;52.272;9.580;2024-01-16T11:18:33;2.70;99.90
21167;DHT22;10741;52.272;9.580;2024-01-16T11:21:01;2.60;99.90
21167;DHT22;10741;52.272;9.580;2024-01-16T11:23:28;2.60;99.90
21167;DHT22;10741;52.272;9.580;2024-01-16T11:25:53;2.50;99.90
21167;DHT22;10741;52.272;9.580;2024-01-16T11:28:19;2.40;99.90
21167;DHT22;10741;52.272;9.580;2024-01-16T11:30:45;2.40;99.90
21167;DHT22;10741;52.272;9.580;2024-01-16T11:35:58;2.40;99.90
21167;DHT22;10741;52.272;9.580;2024-01-16T11:38:25;2.50;99.90
21167;DHT22;10741;52.272;9.580;2024-01-16T11:40:52;2.50;99.90
21167;DHT22;10741;52.272;9.580;2024-01-16T11:46:07;2.80;99.90
21167;DHT22;10741;52.272;9.580;2024-01-16T11:48:34;2.90;99.90
21167;DHT22;10741;52.272;9.580;2024-01-16T11:51:00;3.00;99.90
21167;DHT22;10741;52.272;9.580;2024-01-16T11:53:38;3.10;99.90
21167;DHT22;10741;52.272;9.580;2024-01-16T11:56:39;3.20;99.90
21167;DHT22;10741;52.272;9.580;2024-01-16T11:59:11;3.30;99.90
21167;DHT22;10741;52.272;9.580;2024-01-16T12:01:38;3.20;99.90
21167;DHT22;10741;52.272;9.580;2024-01-16T12:04:07;3.20;99.90
21167;DHT22;10741;52.272;9.580;2024-01-16T12:06:36;3.30;99.90
21167;DHT22;10741;52.272;9.580;2024-01-16T12:09:16;3.40;99.90
21167;DHT22;10741;52.272;9.580;2024-01-16T12:12:02;3.30;99.90
21167;DHT22;10741;52.272;9.580;2024-01-16T12:14:28;3.20;99.90
21167;DHT22;10741;52.272;9.580;2024-01-16T12:17:11;3.10;99.90
21167;DHT22;10741;52.272;9.580;2024-01-16T12:19:37;3.00;99.90
21167;DHT22;10741;52.272;9.580;2024-01-16T12:22:07;2.80;99.90
21167;DHT22;10741;52.272;9.580;2024-01-16T12:24:33;2.70;99.90
21167;DHT22;10741;52.272;9.580;2024-01-16T12:26:59;2.50;99.90
21167;DHT22;10741;52.272;9.580;2024-01-16T12:29:24;2.50;99.90
21167;DHT22;10741;52.272;9.580;2024-01-16T12:32:08;2.50;99.90
21167;DHT22;10741;52.272;9.580;2024-01-16T12:34:54;2.40;99.90
21167;DHT22;10741;52.272;9.580;2024-01-16T12:37:21;2.30;99.90
21167;DHT22;10741;52.272;9.580;2024-01-16T12:39:46;2.30;99.90
21167;DHT22;10741;52.272;9.580;2024-01-16T12:42:13;2.20;99.90
21167;DHT22;10741;52.272;9.580;2024-01-16T12:44:38;2.20;99.90
21167;DHT22;10741;52.272;9.580;2024-01-16T12:47:04;2.30;99.90
21167;DHT22;10741;52.272;9.580;2024-01-16T12:49:30;2.30;99.90
21167;DHT22;10741;52.272;9.580;2024-01-16T12:52:22;2.30;99.90
21167;DHT22;10741;52.272;9.580;2024-01-16T12:55:00;2.40;99.90
21167;DHT22;10741;52.272;9.580;2024-01-16T12:57:26;2.50;99.90
21167;DHT22;10741;52.272;9.580;2024-01-16T12:59:52;2.50;99.90
21167;DHT22;10741;52.272;9.580;2024-01-16T13:02:22;2.50;99.90
21167;DHT22;10741;52.272;9.580;2024-01-16T13:04:57;2.60;99.90
21167;DHT22;10741;52.272;9.580;2024-01-16T13:07:24;2.50;99.90
21167;DHT22;10741;52.272;9.580;2024-01-16T13:10:04;2.40;99.90
21167;DHT22;10741;52.272;9.580;2024-01-16T13:12:31;2.40;99.90
21167;DHT22;10741;52.272;9.580;2024-01-16T13:14:58;2.40;99.90
21167;DHT22;10741;52.272;9.580;2024-01-16T13:17:24;2.40;99.90
21167;DHT22;10741;52.272;9.580;2024-01-16T13:19:49;2.40;99.90
21167;DHT22;10741;52.272;9.580;2024-01-16T13:22:16;2.50;99.90
21167;DHT22;10741;52.272;9.580;2024-01-16T13:24:41;2.40;99.90
21167;DHT22;10741;52.272;9.580;2024-01-16T13:27:08;2.40;99.90
21167;DHT22;10741;52.272;9.580;2024-01-16T13:29:35;2.40;99.90
21167;DHT22;10741;52.272;9.580;2024-01-16T13:32:03;2.30;99.90
21167;DHT22;10741;52.272;9.580;2024-01-16T13:34:30;2.30;99.90
21167;DHT22;10741;52.272;9.580;2024-01-16T13:36:58;2.30;99.90
21167;DHT22;10741;52.272;9.580;2024-01-16T13:39:26;2.20;99.90
21167;DHT22;10741;52.272;9.580;2024-01-16T13:41:52;2.20;99.90
21167;DHT22;10741;52.272;9.580;2024-01-16T13:44:18;2.20;99.90
21167;DHT22;10741;52.272;9.580;2024-01-16T13:46:44;2.20;99.90
21167;DHT22;10741;52.272;9.580;2024-01-16T13:49:09;2.20;99.90
21167;DHT22;10741;52.272;9.580;2024-01-16T13:51:35;2.10;99.90
21167;DHT22;10741;52.272;9.580;2024-01-16T13:54:01;2.10;99.90
21167;DHT22;10741;52.272;9.580;2024-01-16T13:56:26;2.10;99.90
21167;DHT22;10741;52.272;9.580;2024-01-16T13:58:52;2.00;99.90
21167;DHT22;10741;52.272;9.580;2024-01-16T14:01:17;2.10;99.90
21167;DHT22;10741;52.272;9.580;2024-01-16T14:03:45;2.00;99.90
21167;DHT22;10741;52.272;9.580;2024-01-16T14:06:12;2.00;99.90
21167;DHT22;10741;52.272;9.580;2024-01-16T14:08:38;2.00;99.90
21167;DHT22;10741;52.272;9.580;2024-01-16T14:11:04;2.00;99.90
21167;DHT22;10741;52.272;9.580;2024-01-16T14:13:30;2.00;99.90
21167;DHT22;10741;52.272;9.580;2024-01-16T14:15:56;2.00;99.90
21167;DHT22;10741;52.272;9.580;2024-01-16T14:18:22;2.00;99.90
21167;DHT22;10741;52.272;9.580;2024-01-16T14:20:48;2.00;99.90
21167;DHT22;10741;52.272;9.580;2024-01-16T14:23:13;2.00;99.90
21167;DHT22;10741;52.272;9.580;2024-01-16T14:25:39;2.00;99.90
21167;DHT22;10741;52.272;9.580;2024-01-16T14:28:05;2.00;99.90
21167;DHT22;10741;52.272;9.580;2024-01-16T14:30:32;2.00;99.90
21167;DHT22;10741;52.272;9.580;2024-01-16T14:32:58;1.90;99.90
21167;DHT22;10741;52.272;9.580;2024-01-16T14:35:24;1.90;99.90
21167;DHT22;10741;52.272;9.580;2024-01-16T14:37:51;1.90;99.90
21167;DHT22;10741;52.272;9.580;2024-01-16T14:40:17;1.80;99.90
21167;DHT22;10741;52.272;9.580;2024-01-16T14:42:49;1.80;99.90
21167;DHT22;10741;52.272;9.580;2024-01-16T14:45:16;1.80;99.90
21167;DHT22;10741;52.272;9.580;2024-01-16T14:47:42;1.80;99.90
21167;DHT22;10741;52.272;9.580;2024-01-16T14:50:10;1.70;99.90
21167;DHT22;10741;52.272;9.580;2024-01-16T14:52:37;1.70;99.90
21167;DHT22;10741;52.272;9.580;2024-01-16T14:55:07;1.60;99.90
21167;DHT22;10741;52.272;9.580;2024-01-16T14:57:37;1.60;99.90
21167;DHT22;10741;52.272;9.580;2024-01-16T15:00:08;1.60;99.90
21167;DHT22;10741;52.272;9.580;2024-01-16T15:02:49;1.60;99.90
21167;DHT22;10741;52.272;9.580;2024-01-16T15:05:18;1.60;99.90
21167;DHT22;10741;52.272;9.580;2024-01-16T15:07:47;1.60;99.90
21167;DHT22;10741;52.272;9.580;2024-01-16T15:10:13;1.60;99.90
21167;DHT22;10741;52.272;9.580;2024-01-16T15:12:42;1.60;99.90
21167;DHT22;10741;52.272;9.580;2024-01-16T15:15:09;1.60;99.90
21167;DHT22;10741;52.272;9.580;2024-01-16T15:17:36;1.50;99.90
21167;DHT22;10741;52.272;9.580;2024-01-16T15:20:02;1.40;99.90
21167;DHT22;10741;52.272;9.580;2024-01-16T15:22:29;1.40;99.90
21167;DHT22;10741;52.272;9.580;2024-01-16T15:24:57;1.40;99.90
21167;DHT22;10741;52.272;9.580;2024-01-16T15:27:22;1.30;99.90
21167;DHT22;10741;52.272;9.580;2024-01-16T15:29:48;1.20;99.90
21167;DHT22;10741;52.272;9.580;2024-01-16T15:32:15;1.20;99.90
21167;DHT22;10741;52.272;9.580;2024-01-16T15:34:41;1.10;99.90
21167;DHT22;10741;52.272;9.580;2024-01-16T15:37:06;1.10;99.90
21167;DHT22;10741;52.272;9.580;2024-01-16T15:39:32;1.00;99.90
21167;DHT22;10741;52.272;9.580;2024-01-16T15:41:58;1.00;99.90
21167;DHT22;10741;52.272;9.580;2024-01-16T15:44:23;1.00;99.90
21167;DHT22;10741;52.272;9.580;2024-01-16T15:47:00;1.00;99.90